Time;durP1;ratioP1;P1;durP2;ratioP2;P2;SDS_P1;SDS_P2;PMS_P1;PMS_P2;Temp;Humidity;BMP_temperature;BMP_pressure;BME280_temperature;BME280_humidity;BME280_pressure;Samples;Min_cycle;Max_cycle;Signal;HPM_P1;HPM_P2
2023/05/31 00:01:31;;;;;;;5.87;1.77;;;;;;;;;;5021637;28;20492;-66
2023/05/31 00:03:57;;;;;;;7.10;1.93;;;;;;;;;;5022334;28;20048;-66
2023/05/31 00:06:22;;;;;;;5.10;1.80;;;;;;;;;;5020005;28;20053;-66
2023/05/31 00:08:47;;;;;;;6.23;1.90;;;;;;;;;;5026686;28;20033;-66
2023/05/31 00:11:12;;;;;;;6.77;1.77;;;;;;;;;;5026271;28;20469;-66
2023/05/31 00:13:40;;;;;;;5.43;1.67;;;;;;;;;;5026861;28;20070;-66
2023/05/31 00:16:06;;;;;;;5.57;1.90;;;;;;;;;;5026456;28;20466;-67
2023/05/31 00:18:31;;;;;;;5.70;1.85;;;;;;;;;;5024149;28;20037;-66
2023/05/31 00:20:56;;;;;;;5.40;1.70;;;;;;;;;;5022154;28;20033;-66
2023/05/31 00:23:22;;;;;;;6.05;1.70;;;;;;;;;;5028677;28;20456;-67
2023/05/31 00:25:47;;;;;;;5.47;2.03;;;;;;;;;;5026765;28;20032;-66
2023/05/31 00:28:12;;;;;;;7.07;1.90;;;;;;;;;;5021009;28;20122;-66
2023/05/31 00:30:37;;;;;;;4.78;1.80;;;;;;;;;;5025725;28;20116;-67
2023/05/31 00:33:02;;;;;;;4.97;1.45;;;;;;;;;;5026188;28;20088;-67
2023/05/31 00:35:27;;;;;;;7.07;1.90;;;;;;;;;;5021890;28;20034;-66
2023/05/31 00:37:52;;;;;;;5.00;1.75;;;;;;;;;;5021219;28;20573;-66
2023/05/31 00:40:18;;;;;;;6.70;1.95;;;;;;;;;;5015677;28;20029;-67
2023/05/31 00:42:43;;;;;;;4.83;1.80;;;;;;;;;;5023185;28;20029;-67
2023/05/31 00:45:08;;;;;;;6.38;1.92;;;;;;;;;;5019741;28;20029;-67
2023/05/31 00:47:34;;;;;;;5.90;2.00;;;;;;;;;;5024618;28;20377;-67
2023/05/31 00:50:00;;;;;;;5.40;1.73;;;;;;;;;;5023585;28;20397;-67
2023/05/31 00:52:25;;;;;;;6.40;1.90;;;;;;;;;;5017002;28;20017;-66
2023/05/31 00:54:51;;;;;;;6.50;1.70;;;;;;;;;;5027890;28;20030;-66
2023/05/31 00:57:16;;;;;;;4.80;1.57;;;;;;;;;;5028245;28;20017;-66
2023/05/31 00:59:41;;;;;;;5.73;2.00;;;;;;;;;;5027232;28;20742;-66
2023/05/31 01:02:06;;;;;;;5.47;1.80;;;;;;;;;;5015761;28;20013;-67
2023/05/31 01:04:32;;;;;;;5.63;1.70;;;;;;;;;;5022968;28;20117;-66
2023/05/31 01:07:00;;;;;;;5.80;1.90;;;;;;;;;;5024198;28;20017;-68
2023/05/31 01:09:25;;;;;;;7.03;2.10;;;;;;;;;;5027942;28;20121;-66
2023/05/31 01:11:57;;;;;;;6.20;1.60;;;;;;;;;;5027052;28;20105;-66
2023/05/31 01:14:41;;;;;;;6.82;1.75;;;;;;;;;;5023596;28;20053;-68
2023/05/31 01:17:06;;;;;;;;;;;;;;;;;;5013610;28;20022;-66
2023/05/31 01:19:51;;;;;;;7.30;1.75;;;;;;;;;;5024589;28;19909;-68
2023/05/31 01:22:28;;;;;;;5.75;1.80;;;;;;;;;;5019849;28;20460;-67
2023/05/31 01:24:59;;;;;;;5.80;1.80;;;;;;;;;;5021127;28;20017;-67
2023/05/31 01:27:25;;;;;;;5.78;1.73;;;;;;;;;;5026424;28;20025;-67
2023/05/31 01:29:51;;;;;;;5.70;1.95;;;;;;;;;;5028563;28;20081;-67
2023/05/31 01:32:18;;;;;;;6.63;2.00;;;;;;;;;;5022899;28;20044;-67
2023/05/31 01:34:45;;;;;;;5.72;1.90;;;;;;;;;;5023585;28;20029;-66
2023/05/31 01:37:10;;;;;;;;;;;;;;;;;;5025200;28;20493;-67
2023/05/31 01:39:35;;;;;;;6.25;1.80;;;;;;;;;;5022051;28;20288;-67
2023/05/31 01:42:01;;;;;;;4.83;1.73;;;;;;;;;;5020808;28;20110;-65
2023/05/31 01:44:26;;;;;;;7.50;2.10;;;;;;;;;;5014455;28;20033;-66
2023/05/31 01:46:51;;;;;;;8.07;2.00;;;;;;;;;;5020692;28;20040;-66
2023/05/31 01:49:17;;;;;;;5.35;1.80;;;;;;;;;;5019950;28;20480;-66
2023/05/31 01:51:43;;;;;;;5.60;1.80;;;;;;;;;;5011037;28;20032;-66
2023/05/31 01:54:08;;;;;;;6.45;1.73;;;;;;;;;;5019042;28;20037;-66
2023/05/31 01:56:33;;;;;;;5.10;1.93;;;;;;;;;;5021040;28;20029;-66
2023/05/31 01:58:59;;;;;;;6.05;1.73;;;;;;;;;;5013669;28;20389;-66
2023/05/31 02:01:25;;;;;;;7.88;2.00;;;;;;;;;;5022347;28;20018;-67
2023/05/31 02:03:53;;;;;;;6.63;1.90;;;;;;;;;;5020869;28;20025;-67
2023/05/31 02:06:18;;;;;;;5.38;1.95;;;;;;;;;;5018776;28;20417;-65
2023/05/31 02:08:44;;;;;;;5.88;1.83;;;;;;;;;;5024200;28;20017;-65
2023/05/31 02:11:09;;;;;;;5.90;2.00;;;;;;;;;;5025430;28;20037;-65
2023/05/31 02:13:35;;;;;;;5.55;1.85;;;;;;;;;;5023166;28;20492;-65
2023/05/31 02:16:00;;;;;;;5.40;1.90;;;;;;;;;;5023008;28;20097;-65
2023/05/31 02:18:29;;;;;;;5.07;2.00;;;;;;;;;;5023777;28;20025;-66
2023/05/31 02:20:54;;;;;;;6.57;2.42;;;;;;;;;;5029764;28;20032;-67
2023/05/31 02:23:20;;;;;;;6.03;1.98;;;;;;;;;;5023055;28;20389;-67
2023/05/31 02:25:46;;;;;;;6.60;2.15;;;;;;;;;;5024795;28;20018;-67
2023/05/31 02:28:11;;;;;;;6.28;2.22;;;;;;;;;;5027894;28;20037;-66
2023/05/31 02:30:38;;;;;;;7.43;2.08;;;;;;;;;;5024216;28;20500;-67
2023/05/31 02:33:03;;;;;;;7.35;1.95;;;;;;;;;;5028678;28;20029;-66
2023/05/31 02:35:28;;;;;;;6.30;2.07;;;;;;;;;;5038229;28;20024;-66
2023/05/31 02:37:53;;;;;;;8.10;2.25;;;;;;;;;;5027258;28;20032;-66
2023/05/31 02:40:18;;;;;;;6.20;2.05;;;;;;;;;;5030266;28;20041;-65
2023/05/31 02:42:43;;;;;;;5.78;1.90;;;;;;;;;;5026106;28;20481;-66
2023/05/31 02:45:09;;;;;;;8.13;2.20;;;;;;;;;;5026093;28;20013;-67
2023/05/31 02:47:36;;;;;;;5.80;1.95;;;;;;;;;;5028123;28;20041;-66
2023/05/31 02:50:01;;;;;;;5.45;2.20;;;;;;;;;;5023932;28;20029;-67
2023/05/31 02:52:26;;;;;;;7.17;2.13;;;;;;;;;;5021433;28;20370;-66
2023/05/31 02:54:51;;;;;;;7.87;1.90;;;;;;;;;;5027591;28;20480;-67
2023/05/31 02:57:17;;;;;;;6.53;2.00;;;;;;;;;;5022977;28;20032;-71
2023/05/31 02:59:43;;;;;;;5.80;1.73;;;;;;;;;;5015624;28;21049;-67
2023/05/31 03:02:08;;;;;;;6.15;1.83;;;;;;;;;;5024722;28;20103;-67
2023/05/31 03:04:33;;;;;;;5.35;1.90;;;;;;;;;;5017609;28;20450;-67
2023/05/31 03:06:58;;;;;;;5.15;1.88;;;;;;;;;;5028726;28;20076;-67
2023/05/31 03:09:23;;;;;;;8.00;2.70;;;;;;;;;;5016889;28;20010;-67
2023/05/31 03:11:48;;;;;;;7.43;3.20;;;;;;;;;;5029408;28;20465;-66
2023/05/31 03:14:14;;;;;;;6.20;2.15;;;;;;;;;;5028038;28;20473;-65
2023/05/31 03:16:39;;;;;;;6.05;2.00;;;;;;;;;;5021677;28;20481;-67
2023/05/31 03:19:04;;;;;;;5.80;1.77;;;;;;;;;;5022553;28;20021;-65
2023/05/31 03:21:30;;;;;;;6.03;1.90;;;;;;;;;;5018434;28;20053;-64
2023/05/31 03:23:55;;;;;;;6.50;2.03;;;;;;;;;;5033426;28;20100;-65
2023/05/31 03:26:20;;;;;;;5.03;1.77;;;;;;;;;;5026015;28;20362;-65
2023/05/31 03:28:45;;;;;;;6.30;2.17;;;;;;;;;;5017180;28;20033;-66
2023/05/31 03:31:10;;;;;;;5.55;2.03;;;;;;;;;;5021881;28;20092;-66
2023/05/31 03:33:36;;;;;;;5.20;1.90;;;;;;;;;;5019431;28;20370;-65
2023/05/31 03:36:02;;;;;;;5.75;2.15;;;;;;;;;;5027440;28;20045;-66
2023/05/31 03:38:28;;;;;;;8.10;1.90;;;;;;;;;;5018196;28;20064;-64
2023/05/31 03:40:53;;;;;;;5.43;2.03;;;;;;;;;;5024099;28;20044;-66
2023/05/31 03:43:18;;;;;;;5.15;1.92;;;;;;;;;;5022858;28;20024;-65
2023/05/31 03:45:43;;;;;;;6.28;1.90;;;;;;;;;;5026087;28;20045;-66
2023/05/31 03:48:08;;;;;;;5.57;2.10;;;;;;;;;;5025343;28;20033;-66
2023/05/31 03:50:33;;;;;;;6.03;2.30;;;;;;;;;;5033796;28;20029;-66
2023/05/31 03:52:58;;;;;;;5.23;2.00;;;;;;;;;;5015692;28;20159;-65
2023/05/31 03:55:25;;;;;;;5.85;1.80;;;;;;;;;;5018077;28;20105;-65
2023/05/31 03:57:50;;;;;;;6.82;2.10;;;;;;;;;;5023801;28;20030;-65
2023/05/31 04:00:15;;;;;;;7.07;2.50;;;;;;;;;;5032402;28;20024;-66
2023/05/31 04:02:41;;;;;;;5.97;2.30;;;;;;;;;;5016352;28;20029;-66
2023/05/31 04:05:06;;;;;;;5.57;1.92;;;;;;;;;;5035567;28;20017;-66
2023/05/31 04:07:31;;;;;;;5.80;1.90;;;;;;;;;;5019183;28;20063;-66
2023/05/31 04:09:56;;;;;;;7.75;2.17;;;;;;;;;;5026391;28;20108;-65
2023/05/31 04:12:22;;;;;;;6.75;2.35;;;;;;;;;;5018625;28;20108;-65
2023/05/31 04:14:47;;;;;;;7.82;2.05;;;;;;;;;;5032632;28;20500;-65
2023/05/31 04:17:12;;;;;;;8.17;2.17;;;;;;;;;;5027704;28;20024;-65
2023/05/31 04:19:37;;;;;;;7.50;2.03;;;;;;;;;;5027833;28;20408;-65
2023/05/31 04:22:03;;;;;;;9.00;2.73;;;;;;;;;;5019694;28;20021;-66
2023/05/31 04:24:28;;;;;;;7.07;2.05;;;;;;;;;;5016511;28;20654;-66
2023/05/31 04:26:53;;;;;;;5.97;2.20;;;;;;;;;;5015709;28;20044;-66
2023/05/31 04:29:18;;;;;;;8.67;2.17;;;;;;;;;;5008110;28;20103;-67
2023/05/31 04:31:44;;;;;;;6.80;2.10;;;;;;;;;;5017475;28;20475;-68
2023/05/31 04:34:10;;;;;;;8.43;2.38;;;;;;;;;;5020714;28;20045;-67
2023/05/31 04:36:36;;;;;;;5.80;2.00;;;;;;;;;;5025919;28;20025;-67
2023/05/31 04:39:03;;;;;;;7.38;2.15;;;;;;;;;;5022438;28;20451;-67
2023/05/31 04:41:28;;;;;;;7.00;2.08;;;;;;;;;;5029269;28;20025;-67
2023/05/31 04:43:53;;;;;;;7.97;2.33;;;;;;;;;;5024868;28;20024;-66
2023/05/31 04:46:19;;;;;;;7.50;2.40;;;;;;;;;;5017348;28;20519;-66
2023/05/31 04:48:44;;;;;;;8.02;2.80;;;;;;;;;;5022242;28;20753;-66
2023/05/31 04:51:09;;;;;;;6.00;1.90;;;;;;;;;;5011684;28;20029;-66
2023/05/31 04:53:34;;;;;;;5.93;2.33;;;;;;;;;;5013501;28;20033;-66
2023/05/31 04:56:04;;;;;;;5.13;2.13;;;;;;;;;;5016492;28;20096;-67
2023/05/31 04:58:29;;;;;;;7.03;2.25;;;;;;;;;;5012410;28;20030;-67
2023/05/31 05:00:54;;;;;;;6.65;2.15;;;;;;;;;;5003856;28;21840;-61
2023/05/31 05:03:20;;;;;;;7.07;2.17;;;;;;;;;;5013541;28;20042;-62
2023/05/31 05:05:45;;;;;;;6.07;2.00;;;;;;;;;;5015731;28;20041;-61
2023/05/31 05:08:10;;;;;;;7.93;1.97;;;;;;;;;;5019268;28;20465;-61
2023/05/31 05:10:35;;;;;;;7.20;2.30;;;;;;;;;;5021876;28;20152;-62
2023/05/31 05:13:00;;;;;;;6.03;1.87;;;;;;;;;;5018833;28;20026;-62
2023/05/31 05:15:25;;;;;;;6.47;1.80;;;;;;;;;;5016340;28;20025;-62
2023/05/31 05:17:51;;;;;;;7.78;2.40;;;;;;;;;;5016647;28;20440;-62
2023/05/31 05:20:16;;;;;;;5.63;1.98;;;;;;;;;;5014889;28;20044;-62
2023/05/31 05:22:42;;;;;;;6.88;2.03;;;;;;;;;;5019626;28;20137;-61
2023/05/31 05:25:07;;;;;;;;;;;;;;;;;;5020279;28;20030;-61
2023/05/31 05:27:33;;;;;;;5.65;1.90;;;;;;;;;;5026951;28;19932;-61
2023/05/31 05:29:58;;;;;;;8.30;2.10;;;;;;;;;;5030303;28;20091;-62
2023/05/31 05:32:23;;;;;;;5.55;2.10;;;;;;;;;;5030325;28;20028;-62
2023/05/31 05:34:48;;;;;;;5.63;1.97;;;;;;;;;;5029614;28;20052;-62
2023/05/31 05:37:13;;;;;;;6.07;1.90;;;;;;;;;;5030953;28;20559;-62
2023/05/31 05:39:38;;;;;;;5.95;1.88;;;;;;;;;;5029284;28;20048;-62
2023/05/31 05:42:04;;;;;;;9.20;2.00;;;;;;;;;;5026407;28;20029;-62
2023/05/31 05:44:29;;;;;;;7.23;2.23;;;;;;;;;;5029996;28;20376;-62
2023/05/31 05:46:54;;;;;;;6.95;2.25;;;;;;;;;;5030769;28;20026;-61
2023/05/31 05:49:19;;;;;;;7.53;1.90;;;;;;;;;;5012524;28;20085;-61
2023/05/31 05:51:45;;;;;;;7.83;2.17;;;;;;;;;;5016837;28;20056;-61
2023/05/31 05:54:10;;;;;;;5.55;2.35;;;;;;;;;;5032765;28;20036;-61
2023/05/31 05:56:35;;;;;;;6.85;2.10;;;;;;;;;;5038240;28;20022;-61
2023/05/31 05:59:00;;;;;;;9.33;2.50;;;;;;;;;;5044631;28;20476;-61
2023/05/31 06:01:26;;;;;;;6.57;2.28;;;;;;;;;;5026220;28;20083;-61
2023/05/31 06:03:52;;;;;;;8.05;2.45;;;;;;;;;;5030450;28;20108;-61
2023/05/31 06:06:17;;;;;;;6.55;2.03;;;;;;;;;;5019543;28;20101;-61
2023/05/31 06:08:45;;;;;;;8.40;2.60;;;;;;;;;;5027587;28;20029;-61
2023/05/31 06:11:10;;;;;;;5.32;2.00;;;;;;;;;;5039461;28;20492;-61
2023/05/31 06:13:35;;;;;;;8.77;2.03;;;;;;;;;;5031659;28;20056;-60
2023/05/31 06:16:02;;;;;;;5.17;1.90;;;;;;;;;;5024050;28;20022;-60
2023/05/31 06:18:27;;;;;;;8.05;2.20;;;;;;;;;;5024227;28;20029;-62
2023/05/31 06:20:55;;;;;;;7.37;2.20;;;;;;;;;;5036690;28;20020;-61
2023/05/31 06:23:20;;;;;;;5.55;1.92;;;;;;;;;;5037740;28;20017;-61
2023/05/31 06:25:45;;;;;;;5.28;2.15;;;;;;;;;;5042460;28;20489;-61
2023/05/31 06:28:11;;;;;;;6.60;2.00;;;;;;;;;;5031152;28;20492;-61
2023/05/31 06:30:36;;;;;;;9.23;2.10;;;;;;;;;;5027565;28;20157;-61
2023/05/31 06:33:01;;;;;;;8.00;1.90;;;;;;;;;;5029475;28;20029;-60
2023/05/31 06:35:26;;;;;;;8.55;2.08;;;;;;;;;;5021696;28;20480;-61
2023/05/31 06:37:52;;;;;;;7.70;2.27;;;;;;;;;;5042729;28;20021;-61
2023/05/31 06:40:17;;;;;;;8.25;2.30;;;;;;;;;;5050146;28;20013;-61
2023/05/31 06:42:43;;;;;;;6.38;1.83;;;;;;;;;;5039880;28;20038;-62
2023/05/31 06:45:08;;;;;;;6.37;2.10;;;;;;;;;;5025607;28;20409;-62
2023/05/31 06:47:33;;;;;;;6.13;1.98;;;;;;;;;;5024832;28;20052;-61
2023/05/31 06:49:58;;;;;;;7.83;2.17;;;;;;;;;;5031000;28;20027;-61
2023/05/31 06:52:23;;;;;;;6.60;2.60;;;;;;;;;;5017420;28;20429;-60
2023/05/31 06:54:49;;;;;;;6.50;2.03;;;;;;;;;;5039623;28;20631;-60
2023/05/31 06:57:14;;;;;;;6.70;2.22;;;;;;;;;;5037170;28;20036;-61
2023/05/31 06:59:39;;;;;;;7.35;2.03;;;;;;;;;;5034646;28;20555;-61
2023/05/31 07:02:05;;;;;;;5.20;1.95;;;;;;;;;;5030360;28;20029;-61
2023/05/31 07:04:30;;;;;;;7.90;2.10;;;;;;;;;;5033164;28;20034;-61
2023/05/31 07:06:55;;;;;;;8.20;1.98;;;;;;;;;;5033735;28;20490;-61
2023/05/31 07:09:20;;;;;;;5.57;1.77;;;;;;;;;;5033413;28;20033;-61
2023/05/31 07:11:46;;;;;;;5.47;1.80;;;;;;;;;;5033242;28;20036;-61
2023/05/31 07:14:11;;;;;;;7.38;1.90;;;;;;;;;;5028816;28;20452;-61
2023/05/31 07:16:36;;;;;;;5.63;1.90;;;;;;;;;;5028207;28;20371;-61
2023/05/31 07:19:01;;;;;;;6.87;2.10;;;;;;;;;;5032473;28;20024;-61
2023/05/31 07:21:27;;;;;;;5.88;2.05;;;;;;;;;;5032866;28;20052;-61
2023/05/31 07:23:52;;;;;;;6.87;2.00;;;;;;;;;;5033039;28;20105;-61
2023/05/31 07:26:17;;;;;;;7.07;2.25;;;;;;;;;;5032878;28;20018;-61
2023/05/31 07:28:43;;;;;;;7.03;1.90;;;;;;;;;;5032639;28;20565;-61
2023/05/31 07:31:08;;;;;;;6.30;1.90;;;;;;;;;;5027560;28;20030;-61
2023/05/31 07:33:33;;;;;;;5.55;1.75;;;;;;;;;;5026924;28;20022;-60
2023/05/31 07:36:00;;;;;;;5.15;1.60;;;;;;;;;;5032655;28;20010;-60
2023/05/31 07:38:25;;;;;;;6.45;1.83;;;;;;;;;;5026894;28;20120;-61
2023/05/31 07:40:50;;;;;;;4.33;1.50;;;;;;;;;;5032242;28;20053;-60
2023/05/31 07:43:15;;;;;;;5.07;1.50;;;;;;;;;;5028789;28;20029;-60
2023/05/31 07:45:40;;;;;;;5.30;1.80;;;;;;;;;;5025408;28;20021;-59
2023/05/31 07:48:06;;;;;;;6.80;1.63;;;;;;;;;;5032214;28;20044;-60
2023/05/31 07:50:31;;;;;;;10.60;1.83;;;;;;;;;;5032986;28;20029;-61
2023/05/31 07:52:56;;;;;;;6.13;1.60;;;;;;;;;;5032025;28;20026;-60
2023/05/31 07:55:22;;;;;;;7.63;1.70;;;;;;;;;;5032161;28;20075;-60
2023/05/31 07:57:47;;;;;;;4.95;1.73;;;;;;;;;;5032174;28;20108;-60
2023/05/31 08:00:15;;;;;;;5.97;1.95;;;;;;;;;;5028582;28;20029;-61
2023/05/31 08:02:41;;;;;;;6.57;1.88;;;;;;;;;;5029789;28;20033;-60
2023/05/31 08:05:07;;;;;;;5.10;1.50;;;;;;;;;;5026003;28;20427;-60
2023/05/31 08:07:32;;;;;;;7.07;1.70;;;;;;;;;;5029010;28;20018;-60
2023/05/31 08:09:58;;;;;;;6.32;1.90;;;;;;;;;;5031434;28;20018;-60
2023/05/31 08:12:23;;;;;;;5.63;1.77;;;;;;;;;;5031931;28;20024;-60
2023/05/31 08:14:48;;;;;;;6.40;1.90;;;;;;;;;;5031489;28;20029;-60
2023/05/31 08:17:13;;;;;;;6.65;1.63;;;;;;;;;;5025741;28;20021;-60
2023/05/31 08:19:38;;;;;;;5.60;1.60;;;;;;;;;;5027916;28;20497;-60
2023/05/31 08:22:04;;;;;;;5.85;1.70;;;;;;;;;;5023863;28;20033;-60
2023/05/31 08:24:30;;;;;;;7.18;1.60;;;;;;;;;;5031227;28;20068;-60
2023/05/31 08:26:56;;;;;;;5.05;1.60;;;;;;;;;;5033213;28;20236;-60
2023/05/31 08:29:21;;;;;;;8.75;1.90;;;;;;;;;;5032186;28;20124;-60
2023/05/31 08:31:47;;;;;;;5.63;1.53;;;;;;;;;;5026091;28;20029;-60
2023/05/31 08:34:12;;;;;;;4.72;1.45;;;;;;;;;;5031460;28;20397;-59
2023/05/31 08:36:40;;;;;;;5.95;1.50;;;;;;;;;;5031387;28;20067;-61
2023/05/31 08:39:07;;;;;;;6.05;1.23;;;;;;;;;;5030565;28;20009;-60
2023/05/31 08:41:36;;;;;;;6.25;1.92;;;;;;;;;;5031127;28;20488;-61
2023/05/31 08:44:02;;;;;;;7.07;1.58;;;;;;;;;;5031345;28;20029;-60
2023/05/31 08:46:27;;;;;;;6.63;1.73;;;;;;;;;;5025771;28;20017;-62
2023/05/31 08:48:53;;;;;;;7.13;1.75;;;;;;;;;;5030379;28;20048;-61
2023/05/31 08:51:19;;;;;;;4.70;1.30;;;;;;;;;;5030953;28;20025;-61
2023/05/31 08:53:46;;;;;;;5.60;1.50;;;;;;;;;;5031046;28;20120;-61
2023/05/31 08:56:12;;;;;;;8.25;1.70;;;;;;;;;;5031267;28;20028;-61
2023/05/31 08:58:38;;;;;;;4.30;1.40;;;;;;;;;;5030633;28;20022;-61
2023/05/31 09:01:03;;;;;;;8.45;1.80;;;;;;;;;;5027268;28;20028;-62
2023/05/31 09:03:28;;;;;;;7.30;2.00;;;;;;;;;;5030720;28;20049;-61
2023/05/31 09:05:55;;;;;;;4.93;1.50;;;;;;;;;;5031243;28;20511;-61
2023/05/31 09:08:20;;;;;;;6.55;1.50;;;;;;;;;;5031262;28;20493;-61
2023/05/31 09:10:45;;;;;;;5.97;1.60;;;;;;;;;;5031333;28;20116;-61
2023/05/31 09:13:10;;;;;;;7.00;1.63;;;;;;;;;;5031351;28;20346;-61
2023/05/31 09:15:36;;;;;;;7.30;1.90;;;;;;;;;;5030345;28;20057;-61
2023/05/31 09:18:20;;;;;;;4.80;1.63;;;;;;;;;;5025041;28;20017;-61
2023/05/31 09:20:46;;;;;;;4.35;1.60;;;;;;;;;;5030233;28;20021;-61
2023/05/31 09:23:11;;;;;;;;;;;;;;;;;;5031167;28;20044;-61
2023/05/31 09:25:50;;;;;;;5.53;1.15;;;;;;;;;;5030602;28;19909;-62
2023/05/31 09:28:16;;;;;;;6.20;1.42;;;;;;;;;;5029663;28;20056;-61
2023/05/31 09:30:42;;;;;;;6.93;1.40;;;;;;;;;;5028379;28;20063;-61
2023/05/31 09:33:07;;;;;;;4.85;1.40;;;;;;;;;;5029076;28;20056;-59
2023/05/31 09:35:32;;;;;;;4.97;1.60;;;;;;;;;;5029955;28;20047;-62
2023/05/31 09:38:02;;;;;;;5.15;1.15;;;;;;;;;;5012762;28;20464;-61
2023/05/31 09:40:29;;;;;;;5.53;1.40;;;;;;;;;;5008719;28;20052;-61
2023/05/31 09:42:55;;;;;;;6.18;1.20;;;;;;;;;;5010807;28;20076;-61
2023/05/31 09:45:20;;;;;;;7.50;1.30;;;;;;;;;;5010182;28;20018;-61
2023/05/31 09:47:46;;;;;;;4.03;1.00;;;;;;;;;;5027977;28;20572;-62
2023/05/31 09:50:15;;;;;;;4.85;1.30;;;;;;;;;;5027574;28;20009;-62
2023/05/31 09:52:42;;;;;;;5.95;1.20;;;;;;;;;;5029168;28;20025;-61
2023/05/31 09:55:08;;;;;;;7.85;1.40;;;;;;;;;;5029910;28;20477;-61
2023/05/31 09:57:40;;;;;;;6.22;1.35;;;;;;;;;;5030293;28;20017;-60
2023/05/31 10:00:11;;;;;;;;;;;;;;;;;;5030497;28;20028;-60
2023/05/31 10:02:37;;;;;;;6.72;1.25;;;;;;;;;;5015349;28;19921;-59
2023/05/31 10:05:02;;;;;;;5.43;1.40;;;;;;;;;;5022284;28;20021;-60
2023/05/31 10:07:27;;;;;;;6.03;1.47;;;;;;;;;;5030538;28;20018;-60
2023/05/31 10:09:53;;;;;;;4.77;1.20;;;;;;;;;;5030176;28;20084;-60
2023/05/31 10:12:21;;;;;;;6.00;1.20;;;;;;;;;;5030626;28;20036;-60
2023/05/31 10:14:50;;;;;;;5.57;1.30;;;;;;;;;;5029891;28;20021;-61
2023/05/31 10:17:19;;;;;;;6.07;1.27;;;;;;;;;;5025760;28;20047;-60
2023/05/31 10:19:48;;;;;;;4.60;1.23;;;;;;;;;;5029760;28;20021;-59
2023/05/31 10:22:15;;;;;;;4.57;1.20;;;;;;;;;;5030146;28;20018;-60
2023/05/31 10:24:47;;;;;;;5.45;1.20;;;;;;;;;;5029796;28;20101;-60
2023/05/31 10:27:31;;;;;;;5.05;1.20;;;;;;;;;;5030085;28;20075;-60
2023/05/31 10:29:56;;;;;;;;;;;;;;;;;;5029211;28;20021;-61
2023/05/31 10:32:25;;;;;;;4.65;1.20;;;;;;;;;;5022424;28;19909;-60
2023/05/31 10:34:52;;;;;;;5.03;1.15;;;;;;;;;;5028194;28;20030;-61
2023/05/31 10:37:17;;;;;;;;;;;;;;;;;;5026388;28;20028;-61
2023/05/31 10:39:44;;;;;;;5.55;1.38;;;;;;;;;;5026278;28;19913;-61
2023/05/31 10:42:21;;;;;;;4.18;1.30;;;;;;;;;;5032423;28;20026;-60
2023/05/31 10:44:53;;;;;;;4.38;1.20;;;;;;;;;;5033368;28;20045;-61
2023/05/31 10:47:20;;;;;;;5.07;1.02;;;;;;;;;;5033684;28;20488;-61
2023/05/31 10:49:46;;;;;;;4.05;0.95;;;;;;;;;;5033131;28;20048;-61
2023/05/31 10:52:14;;;;;;;5.97;1.20;;;;;;;;;;5026289;28;20493;-61
2023/05/31 10:54:39;;;;;;;6.10;1.40;;;;;;;;;;5032955;28;20061;-61
2023/05/31 10:57:05;;;;;;;4.90;1.20;;;;;;;;;;5033321;28;20049;-61
2023/05/31 10:59:38;;;;;;;7.03;1.20;;;;;;;;;;5032672;28;20021;-60
2023/05/31 11:02:05;;;;;;;3.72;1.20;;;;;;;;;;5033282;28;20028;-60
2023/05/31 11:04:30;;;;;;;6.00;1.60;;;;;;;;;;5033031;28;20017;-60
2023/05/31 11:07:14;;;;;;;4.32;1.25;;;;;;;;;;5019708;28;20014;-60
2023/05/31 11:09:40;;;;;;;4.78;1.10;;;;;;;;;;5032560;28;20041;-60
2023/05/31 11:12:06;;;;;;;4.55;1.13;;;;;;;;;;5032835;28;20451;-61
2023/05/31 11:14:31;;;;;;;4.50;1.20;;;;;;;;;;5030928;28;20018;-60
2023/05/31 11:16:57;;;;;;;6.20;1.40;;;;;;;;;;5015834;28;20022;-60
2023/05/31 11:19:29;;;;;;;4.40;1.30;;;;;;;;;;5022606;28;20578;-60
2023/05/31 11:21:55;;;;;;;6.65;1.35;;;;;;;;;;5032962;28;20018;-61
2023/05/31 11:24:27;;;;;;;5.13;1.55;;;;;;;;;;5032906;28;20013;-61
2023/05/31 11:26:52;;;;;;;4.30;1.30;;;;;;;;;;5032903;28;20048;-60
2023/05/31 11:29:18;;;;;;;4.80;1.33;;;;;;;;;;5032458;28;20026;-60
2023/05/31 11:31:55;;;;;;;4.40;1.20;;;;;;;;;;5031591;28;20393;-60
2023/05/31 11:34:20;;;;;;;;;;;;;;;;;;5032142;28;20025;-60
2023/05/31 11:36:46;;;;;;;6.40;1.58;;;;;;;;;;5032448;28;19912;-60
2023/05/31 11:39:11;;;;;;;3.92;1.20;;;;;;;;;;5024896;28;20465;-60
2023/05/31 11:41:36;;;;;;;3.87;1.20;;;;;;;;;;5028846;28;20104;-60
2023/05/31 11:44:02;;;;;;;5.67;1.30;;;;;;;;;;5031986;28;20033;-60
2023/05/31 11:46:28;;;;;;;5.30;1.30;;;;;;;;;;5032280;28;20013;-61
2023/05/31 11:48:53;;;;;;;5.95;1.38;;;;;;;;;;5031707;28;20033;-60
2023/05/31 11:51:19;;;;;;;5.13;1.27;;;;;;;;;;5031537;28;20021;-60
2023/05/31 11:53:44;;;;;;;4.95;1.20;;;;;;;;;;5028137;28;20477;-60
2023/05/31 11:56:12;;;;;;;4.13;1.30;;;;;;;;;;5031795;28;20014;-61
2023/05/31 11:58:37;;;;;;;5.30;1.30;;;;;;;;;;5010625;28;20572;-61
2023/05/31 12:01:02;;;;;;;5.00;1.20;;;;;;;;;;5026101;28;20113;-61
2023/05/31 12:03:27;;;;;;;4.30;1.30;;;;;;;;;;5029061;28;20033;-61
2023/05/31 12:05:56;;;;;;;4.53;1.20;;;;;;;;;;5031990;28;20013;-60
2023/05/31 12:08:21;;;;;;;5.15;1.60;;;;;;;;;;5031703;28;20022;-61
2023/05/31 12:10:47;;;;;;;5.25;1.42;;;;;;;;;;5031357;28;20025;-61
2023/05/31 12:13:15;;;;;;;4.90;1.23;;;;;;;;;;5026152;28;20022;-60
2023/05/31 12:15:40;;;;;;;3.38;1.30;;;;;;;;;;5031733;28;20429;-60
2023/05/31 12:18:05;;;;;;;4.20;1.33;;;;;;;;;;5022424;28;20091;-60
2023/05/31 12:20:30;;;;;;;6.23;1.47;;;;;;;;;;5024753;28;20029;-60
2023/05/31 12:23:11;;;;;;;6.65;1.40;;;;;;;;;;5031656;28;20026;-60
2023/05/31 12:25:37;;;;;;;5.10;1.27;;;;;;;;;;5031991;28;20025;-59
2023/05/31 12:28:02;;;;;;;6.75;1.30;;;;;;;;;;5031766;28;20021;-61
2023/05/31 12:30:27;;;;;;;4.30;1.20;;;;;;;;;;5022114;28;20041;-60
2023/05/31 12:32:52;;;;;;;;;;;;;;;;;;5013784;28;20489;-59
2023/05/31 12:35:17;;;;;;;3.45;1.33;;;;;;;;;;5030186;28;19913;-61
2023/05/31 12:37:43;;;;;;;5.10;1.45;;;;;;;;;;5023084;28;20394;-59
2023/05/31 12:40:09;;;;;;;3.60;1.13;;;;;;;;;;5028390;28;20032;-60
2023/05/31 12:42:34;;;;;;;;;;;;;;;;;;5025969;28;20014;-59
2023/05/31 12:45:04;;;;;;;6.45;1.77;;;;;;;;;;5030571;28;19963;-60
2023/05/31 12:47:29;;;;;;;3.65;1.20;;;;;;;;;;5031458;28;20026;-61
2023/05/31 12:50:00;;;;;;;4.53;1.33;;;;;;;;;;5030852;28;20561;-61
2023/05/31 12:52:25;;;;;;;5.53;1.30;;;;;;;;;;5029955;28;20095;-60
2023/05/31 12:54:50;;;;;;;4.28;1.30;;;;;;;;;;5019911;28;20485;-62
2023/05/31 12:57:15;;;;;;;4.10;1.47;;;;;;;;;;5030859;28;20032;-61
2023/05/31 12:59:40;;;;;;;4.93;1.20;;;;;;;;;;5030472;28;20030;-61
2023/05/31 13:02:06;;;;;;;5.50;1.30;;;;;;;;;;5030971;28;20029;-61
2023/05/31 13:04:32;;;;;;;5.43;1.50;;;;;;;;;;5030730;28;20021;-61
2023/05/31 13:06:57;;;;;;;4.80;1.33;;;;;;;;;;5028293;28;20029;-61
2023/05/31 13:09:23;;;;;;;6.47;1.50;;;;;;;;;;5030369;28;20017;-61
2023/05/31 13:11:48;;;;;;;4.45;1.50;;;;;;;;;;5030758;28;20029;-61
2023/05/31 13:14:14;;;;;;;4.43;1.30;;;;;;;;;;5026749;28;20017;-61
2023/05/31 13:16:40;;;;;;;4.20;1.40;;;;;;;;;;5019041;28;20397;-60
2023/05/31 13:19:06;;;;;;;6.15;1.45;;;;;;;;;;5020962;28;20018;-59
2023/05/31 13:21:32;;;;;;;4.45;1.42;;;;;;;;;;5026380;28;20025;-59
2023/05/31 13:23:57;;;;;;;4.20;1.20;;;;;;;;;;5030083;28;20037;-60
2023/05/31 13:26:23;;;;;;;6.43;1.52;;;;;;;;;;5030449;28;20152;-60
2023/05/31 13:28:48;;;;;;;4.00;1.30;;;;;;;;;;5029419;28;20028;-59
2023/05/31 13:31:14;;;;;;;5.53;1.50;;;;;;;;;;5027428;28;20033;-60
2023/05/31 13:33:39;;;;;;;4.82;1.50;;;;;;;;;;5038502;28;20445;-60
2023/05/31 13:36:04;;;;;;;5.88;1.48;;;;;;;;;;5029701;28;20028;-60
2023/05/31 13:38:30;;;;;;;5.00;1.45;;;;;;;;;;5035787;28;20042;-59
2023/05/31 13:40:55;;;;;;;7.05;1.83;;;;;;;;;;5024822;28;20028;-59
2023/05/31 13:43:24;;;;;;;3.40;1.20;;;;;;;;;;5028472;28;20084;-60
2023/05/31 13:45:49;;;;;;;4.47;1.50;;;;;;;;;;5014736;28;20453;-59
2023/05/31 13:48:14;;;;;;;5.60;1.50;;;;;;;;;;5033630;28;20104;-60
2023/05/31 13:50:40;;;;;;;5.03;1.50;;;;;;;;;;5016163;28;20105;-60
2023/05/31 13:53:05;;;;;;;5.13;1.45;;;;;;;;;;5021981;28;20021;-60
2023/05/31 13:55:31;;;;;;;4.80;1.38;;;;;;;;;;5019023;28;20018;-60
2023/05/31 13:57:56;;;;;;;4.65;1.60;;;;;;;;;;5028172;28;20412;-59
2023/05/31 14:00:21;;;;;;;6.00;1.50;;;;;;;;;;5009974;28;20057;-60
2023/05/31 14:02:47;;;;;;;4.40;1.67;;;;;;;;;;5017749;28;20036;-60
2023/05/31 14:05:12;;;;;;;;;;;;;;;;;;5016654;28;20041;-60
2023/05/31 14:07:37;;;;;;;4.50;1.38;;;;;;;;;;5013835;28;20315;-60
2023/05/31 14:10:03;;;;;;;4.47;1.40;;;;;;;;;;5017823;28;20022;-60
2023/05/31 14:12:29;;;;;;;4.75;1.70;;;;;;;;;;5020268;28;20464;-60
2023/05/31 14:14:54;;;;;;;4.07;1.70;;;;;;;;;;5033415;28;20094;-61
2023/05/31 14:17:20;;;;;;;4.45;1.58;;;;;;;;;;5032474;28;20392;-59
2023/05/31 14:19:45;;;;;;;5.80;1.47;;;;;;;;;;5031126;28;20026;-60
2023/05/31 14:22:10;;;;;;;5.87;1.60;;;;;;;;;;5031905;28;20045;-59
2023/05/31 14:24:35;;;;;;;;;;;;;;;;;;5027989;28;20053;-60
2023/05/31 14:27:00;;;;;;;4.80;1.48;;;;;;;;;;5031588;28;19919;-61
2023/05/31 14:29:26;;;;;;;6.78;1.60;;;;;;;;;;5027423;28;20037;-59
2023/05/31 14:31:51;;;;;;;6.13;1.40;;;;;;;;;;5031236;28;20594;-59
2023/05/31 14:34:17;;;;;;;4.33;1.50;;;;;;;;;;5032401;28;20033;-60
2023/05/31 14:36:42;;;;;;;5.47;1.63;;;;;;;;;;5022419;28;20033;-61
2023/05/31 14:39:09;;;;;;;7.50;1.50;;;;;;;;;;5019295;28;20022;-61